Flight Track Log - Related Links

Times and Time Zones

All times are in EDT time to prevent confusion due to time zone crossing. See the N809DM flight status page for this flight to view local times or setup timezone preferences in your user account.

Time Position Orientation Groundspeed Altitude Reporting Facility
EDT Latitude Longitude Course Direction KTS MPH feet Rate Location/Type
Sun 09:05:01 AM 35.8603 -78.8086 265° West 138 159 900  Level Washington Center
Sun 09:05:55 AM 35.8572 -78.8494 265° West 126 145 2,400 1,388 Climbing Washington Center
Sun 09:07:02 AM 35.8622 -78.8983 277° West 142 163 3,700 1,299 Climbing Washington Center
Sun 09:08:09 AM 35.8731 -78.9525 284° West 147 169 5,300 1,387 Climbing Washington Center
Sun 09:09:55 AM 35.8936 -79.0381 287° West 166 191 7,700 1,365 Climbing Washington Center
Sun 09:10:56 AM 35.9047 -79.0872 286° West 166 191 9,100 1,289 Climbing Washington Center
Sun 09:11:56 AM 35.9200 -79.1314 293° West 155 178 10,300 1,200 Climbing Washington Center
Sun 09:12:56 AM 35.9331 -79.1833 287° West 150 173 11,500 1,068 Climbing Washington Center
Sun 09:13:54 AM 35.9483 -79.2328 291° West 150 173 12,400 933 Climbing Washington Center
Sun 09:15:56 AM 35.9783 -79.3303 291° West 150 173 14,300 923 Climbing Atlanta Center
Sun 09:16:56 AM 35.9928 -79.3781 291° West 150 173 15,200 800 Climbing Atlanta Center
Sun 09:17:56 AM 36.0053 -79.4314 286° West 155 178 15,900 650 Climbing Atlanta Center
Sun 09:18:56 AM 35.9925 -79.4833 253° West 155 178 16,500 700 Climbing Atlanta Center
Sun 09:19:56 AM 35.9697 -79.5436 245° Southwest 173 199 17,300 650 Climbing Atlanta Center
Sun 09:20:56 AM 35.9528 -79.5958 248° West 173 199 17,800 550 Climbing Atlanta Center
Sun 09:21:56 AM 35.9297 -79.6511 243° Southwest 179 206 18,400 550 Climbing Atlanta Center
Sun 09:22:56 AM 35.9108 -79.7033 246° West 179 206 18,900 500 Climbing Atlanta Center
Sun 09:23:56 AM 35.8914 -79.7481 242° Southwest 179 206 19,400 500 Climbing Atlanta Center
Sun 09:24:56 AM 35.8683 -79.8006 242° Southwest 179 206 19,900 500 Climbing Atlanta Center
Sun 09:25:56 AM 35.8469 -79.8503 242° Southwest 179 206 20,400 450 Climbing Atlanta Center
Sun 09:26:56 AM 35.8258 -79.9050 245° Southwest 179 206 20,800 400 Climbing Atlanta Center
Sun 09:27:56 AM 35.8008 -79.9653 243° Southwest 179 206 21,200 400 Climbing Atlanta Center
Sun 09:28:56 AM 35.7775 -80.0203 242° Southwest 179 206 21,600 450 Climbing Atlanta Center
Sun 09:29:56 AM 35.7567 -80.0800 247° West 179 206 22,100 450 Climbing Atlanta Center
Sun 09:30:56 AM 35.7353 -80.1297 242° Southwest 179 206 22,500 350 Climbing Atlanta Center
Sun 09:31:56 AM 35.7161 -80.1842 247° West 179 206 22,800 350 Climbing Atlanta Center
Sun 09:32:56 AM 35.6928 -80.2392 242° Southwest 179 206 23,200 350 Climbing Atlanta Center
Sun 09:33:56 AM 35.6717 -80.2989 246° West 184 212 23,500 350 Climbing Atlanta Center
Sun 09:34:56 AM 35.6506 -80.3561 246° West 189 217 23,900 250 Climbing Atlanta Center
Sun 09:35:56 AM 35.6292 -80.4133 245° Southwest 189 217 24,000 50 Climbing Atlanta Center
Sun 09:36:56 AM 35.6039 -80.4756 243° Southwest 189 217 24,000  Level Atlanta Center
Sun 09:37:56 AM 35.5808 -80.5431 247° West 200 230 24,000  Level Atlanta Center
Sun 09:38:56 AM 35.5575 -80.6053 245° Southwest 200 230 24,000  Level Atlanta Center
Sun 09:39:56 AM 35.5342 -80.6675 245° Southwest 200 230 24,000  Level Atlanta Center
Sun 09:40:56 AM 35.5111 -80.7347 247° West 200 230 24,000  Level Atlanta Center
Sun 09:41:56 AM 35.4878 -80.7969 245° Southwest 200 230 24,000  Level Atlanta Center
Sun 09:42:56 AM 35.4622 -80.8617 244° Southwest 200 230 24,000  Level Atlanta Center
Sun 09:43:56 AM 35.4389 -80.9264 246° West 200 230 24,000  Level Atlanta Center
Sun 09:44:56 AM 35.4153 -80.9833 243° Southwest 207 238 24,000  Level Atlanta Center
Sun 09:45:56 AM 35.3878 -81.0481 242° Southwest 207 238 24,000  Level Atlanta Center
Sun 09:46:56 AM 35.3642 -81.1100 245° Southwest 212 244 24,000  Level Atlanta Center
Sun 09:47:56 AM 35.3386 -81.1769 245° Southwest 212 244 24,000  Level Atlanta Center
Sun 09:48:56 AM 35.3108 -81.2467 244° Southwest 218 251 24,000  Level Atlanta Center
Sun 09:49:56 AM 35.2853 -81.3111 244° Southwest 218 251 24,000  Level Atlanta Center
Sun 09:50:56 AM 35.2617 -81.3756 246° West 218 251 24,000  Level Atlanta Center
Sun 09:51:56 AM 35.2381 -81.4400 246° West 218 251 24,000  Level Atlanta Center
Sun 09:52:56 AM 35.2100 -81.5019 241° Southwest 218 251 24,000  Level Atlanta Center
Sun 09:53:56 AM 35.1864 -81.5661 246° West 218 251 24,000  Level Atlanta Center
Sun 09:54:56 AM 35.1606 -81.6278 243° Southwest 218 251 24,000  Level Atlanta Center
Sun 09:55:56 AM 35.1386 -81.6894 246° West 218 251 24,000  Level Atlanta Center
Sun 09:56:56 AM 35.1108 -81.7536 242° Southwest 213 245 24,000  Level Atlanta Center
Sun 09:57:56 AM 35.0869 -81.8178 246° West 213 245 24,000  Level Atlanta Center
Sun 09:58:56 AM 35.0628 -81.8794 244° Southwest 223 257 24,000  Level Atlanta Center
Sun 09:59:56 AM 35.0369 -81.9461 245° Southwest 215 247 24,000  Level Atlanta Center
Sun 10:00:56 AM 35.0067 -82.0075 239° Southwest 220 253 24,000  Level Atlanta Center
Sun 10:01:56 AM 34.9764 -82.0742 241° Southwest 220 253 24,000  Level Atlanta Center
Sun 10:02:56 AM 34.9503 -82.1383 244° Southwest 215 247 24,000  Level Atlanta Center
Sun 10:03:56 AM 34.9283 -82.2019 247° West 215 247 24,000  Level Atlanta Center
Sun 10:04:56 AM 34.9042 -82.2558 241° Southwest 210 242 24,000  Level Atlanta Center
Sun 10:05:56 AM 34.8778 -82.3169 242° Southwest 210 242 24,000  Level Atlanta Center
Sun 10:06:56 AM 34.8536 -82.3808 245° Southwest 210 242 24,000  Level Atlanta Center
Sun 10:07:56 AM 34.8275 -82.4447 244° Southwest 210 242 24,000  Level Atlanta Center
Sun 10:08:56 AM 34.8031 -82.5083 245° Southwest 210 242 24,000  Level Atlanta Center
Sun 10:09:56 AM 34.7769 -82.5719 243° Southwest 216 249 24,000  Level Atlanta Center
Sun 10:10:56 AM 34.7525 -82.6331 244° Southwest 216 249 24,000  Level Atlanta Center
Sun 10:11:56 AM 34.7261 -82.6967 243° Southwest 211 243 24,000  Level Atlanta Center
Sun 10:12:56 AM 34.7017 -82.7578 244° Southwest 211 243 24,000  Level Atlanta Center
Sun 10:13:56 AM 34.6772 -82.8214 245° Southwest 211 243 24,000  Level Atlanta Center
Sun 10:14:56 AM 34.6467 -82.8875 241° Southwest 211 243 24,000  Level Atlanta Center
Sun 10:15:56 AM 34.6200 -82.9508 243° Southwest 211 243 24,000  Level Atlanta Center
Sun 10:16:56 AM 34.5978 -83.0142 247° West 211 243 24,000  Level Atlanta Center
Sun 10:17:56 AM 34.5711 -83.0750 242° Southwest 211 243 24,000  Level Atlanta Center
Sun 10:18:56 AM 34.5486 -83.1408 247° West 211 243 24,000  Level Atlanta Center
Sun 10:19:56 AM 34.5219 -83.1992 241° Southwest 211 243 24,000  Level Atlanta Center
Sun 10:20:56 AM 34.4972 -83.2650 246° West 211 243 24,000  Level Atlanta Center
Sun 10:21:56 AM 34.4725 -83.3256 244° Southwest 211 243 24,000  Level Atlanta Center
Sun 10:22:56 AM 34.4500 -83.3814 244° Southwest 211 243 24,000  Level Atlanta Center
Sun 10:23:56 AM 34.4231 -83.4444 243° Southwest 211 243 24,000  Level Atlanta Center
Sun 10:24:56 AM 34.4006 -83.5075 247° West 211 243 24,000  Level Atlanta Center
Sun 10:25:56 AM 34.3756 -83.5706 244° Southwest 211 243 24,000  Level Atlanta Center
Sun 10:26:56 AM 34.3467 -83.6286 239° Southwest 211 243 24,000  Level Atlanta Center
Sun 10:27:56 AM 34.3217 -83.6917 244° Southwest 211 243 24,000  Level Atlanta Center
Sun 10:28:56 AM 34.2969 -83.7547 245° Southwest 211 243 24,000  Level Atlanta Center
Sun 10:29:56 AM 34.2678 -83.8200 242° Southwest 206 237 24,000  Level Atlanta Center
Sun 10:30:56 AM 34.2408 -83.8831 243° Southwest 206 237 24,000  Level Atlanta Center
Sun 10:31:56 AM 34.2136 -83.9433 241° Southwest 206 237 24,000  Level Atlanta Center
Sun 10:32:56 AM 34.1886 -84.0061 244° Southwest 211 243 24,000  Level Atlanta Center
Sun 10:33:56 AM 34.1636 -84.0689 244° Southwest 206 237 24,000  Level Atlanta Center
Sun 10:34:56 AM 34.1364 -84.1317 242° Southwest 206 237 24,000  Level Atlanta Center
Sun 10:35:56 AM 34.1114 -84.1969 245° Southwest 211 243 24,000  Level Atlanta Center
Sun 10:36:56 AM 34.0864 -84.2519 241° Southwest 211 243 24,000  Level Atlanta Center
Sun 10:37:56 AM 34.0653 -84.3147 248° West 211 243 24,000  Level Atlanta Center
Sun 10:38:56 AM 34.0339 -84.3772 239° Southwest 216 249 24,000  Level Atlanta Center
Sun 10:39:56 AM 34.0064 -84.4397 242° Southwest 216 249 24,000  Level Atlanta Center
Sun 10:40:56 AM 33.9811 -84.5022 244° Southwest 216 249 24,000  Level Atlanta Center
Sun 10:41:56 AM 33.9558 -84.5722 246° West 216 249 24,000  Level Atlanta Center
Sun 10:42:56 AM 33.9286 -84.6322 241° Southwest 216 249 24,000  Level Atlanta Center
Sun 10:43:56 AM 33.9031 -84.6994 245° Southwest 216 249 24,000  Level Atlanta Center
Sun 10:44:56 AM 33.8756 -84.7544 239° Southwest 216 249 24,000  Level Atlanta Center
Sun 10:45:56 AM 33.8481 -84.8142 241° Southwest 216 249 24,000  Level Atlanta Center
Sun 10:46:56 AM 33.8247 -84.8739 245° Southwest 221 254 24,000  Level Atlanta Center
Sun 10:47:56 AM 33.7994 -84.9361 244° Southwest 216 249 24,000  Level Atlanta Center
Sun 10:48:56 AM 33.7717 -84.9983 242° Southwest 216 249 24,000  Level Atlanta Center
Sun 10:49:56 AM 33.7461 -85.0581 243° Southwest 216 249 24,000  Level Atlanta Center
Sun 10:50:56 AM 33.7206 -85.1203 244° Southwest 216 249 24,000  Level Atlanta Center
Sun 10:51:56 AM 33.6950 -85.1822 244° Southwest 216 249 24,000  Level Atlanta Center
Sun 10:52:56 AM 33.6672 -85.2519 244° Southwest 216 249 24,000  Level Atlanta Center
Sun 10:53:56 AM 33.6417 -85.3114 243° Southwest 216 249 24,000  Level Atlanta Center
Sun 10:54:56 AM 33.6117 -85.3708 239° Southwest 216 249 24,000  Level Atlanta Center
Sun 10:55:56 AM 33.5861 -85.4353 245° Southwest 216 249 24,000  Level Atlanta Center
Sun 10:56:56 AM 33.5581 -85.4922 239° Southwest 216 249 24,000  Level Atlanta Center
Sun 10:57:56 AM 33.5303 -85.5539 242° Southwest 216 249 24,000  Level Atlanta Center
Sun 10:58:56 AM 33.4900 -85.6031 226° Southwest 211 243 24,000 -250 Level Atlanta Center
Sun 10:59:56 AM 33.4519 -85.6522 227° Southwest 211 243 23,500  Descending Atlanta Center
Sun 11:00:56 AM 33.4094 -85.6986 222° Southwest 206 237 24,000 250 Climbing Atlanta Center
Sun 11:01:56 AM 33.3669 -85.7475 224° Southwest 206 237 24,000  Level Atlanta Center
Sun 11:02:56 AM 33.3331 -85.7917 227° Southwest 206 237 24,000  Level Atlanta Center
Sun 11:03:56 AM 33.2967 -85.8481 232° Southwest 201 231 24,000  Level Atlanta Center
Sun 11:04:56 AM 33.2750 -85.9122 248° West 201 231 24,000  Level Atlanta Center
Sun 11:05:56 AM 33.2489 -85.9739 243° Southwest 201 231 24,000  Level Atlanta Center
Sun 11:06:56 AM 33.2189 -86.0303 238° Southwest 206 237 24,000  Level Atlanta Center
Sun 11:07:56 AM 33.1844 -86.0889 235° Southwest 206 237 24,000  Level Atlanta Center
Sun 11:08:56 AM 33.1542 -86.1453 237° Southwest 206 237 24,000  Level Atlanta Center
Sun 11:09:56 AM 33.1219 -86.2042 237° Southwest 206 237 24,000  Level Atlanta Center
Sun 11:10:56 AM 33.0917 -86.2628 238° Southwest 206 237 24,000  Level Atlanta Center
Sun 11:11:56 AM 33.0636 -86.3192 239° Southwest 206 237 24,000  Level Atlanta Center
Sun 11:12:56 AM 33.0353 -86.3778 240° Southwest 206 237 24,000  Level Atlanta Center
Sun 11:13:56 AM 33.0050 -86.4367 238° Southwest 220 253 24,000  Level Atlanta Center
Sun 11:14:56 AM 32.9767 -86.4953 240° Southwest 207 238 24,000  Level Atlanta Center
Sun 11:15:56 AM 32.9483 -86.5564 241° Southwest 207 238 24,000  Level Atlanta Center
Sun 11:16:56 AM 32.9197 -86.6172 241° Southwest 207 238 24,000  Level Atlanta Center
Sun 11:17:56 AM 32.8936 -86.6733 241° Southwest 213 245 24,000  Level Atlanta Center
Sun 11:18:56 AM 32.8672 -86.7319 242° Southwest 213 245 24,000  Level Atlanta Center
Sun 11:19:56 AM 32.8389 -86.7906 240° Southwest 213 245 24,000  Level Atlanta Center
Sun 11:20:56 AM 32.8103 -86.8514 241° Southwest 213 245 24,000  Level Atlanta Center
Sun 11:21:56 AM 32.7797 -86.9097 238° Southwest 213 245 24,000  Level Atlanta Center
Sun 11:22:56 AM 32.7492 -86.9706 239° Southwest 213 245 24,000  Level Atlanta Center
Sun 11:23:56 AM 32.7208 -87.0239 238° Southwest 213 245 24,000  Level Atlanta Center
Sun 11:24:56 AM 32.6881 -87.0844 237° Southwest 213 245 24,000  Level Atlanta Center
Sun 11:25:56 AM 32.6594 -87.1450 241° Southwest 208 239 24,000  Level Atlanta Center
Sun 11:26:56 AM 32.6308 -87.2008 239° Southwest 208 239 24,000  Level Atlanta Center
Sun 11:27:56 AM 32.6019 -87.2614 240° Southwest 208 239 24,000  Level Atlanta Center
Sun 11:28:56 AM 32.5733 -87.3194 240° Southwest 208 239 24,000  Level Atlanta Center
Sun 11:29:56 AM 32.5447 -87.3775 240° Southwest 208 239 24,000  Level Atlanta Center
Sun 11:30:56 AM 32.5139 -87.4381 239° Southwest 208 239 24,000  Level Atlanta Center
Sun 11:31:56 AM 32.4831 -87.4933 238° Southwest 208 239 24,000  Level Atlanta Center
Sun 11:32:00 AM 32.4826 -87.4969 238° Southwest  Level FlightAware Approximate
Sun 11:32:56 AM 32.4517 -87.5661 243° Southwest 215 247 24,000  Level Atlanta Center
Sun 11:33:56 AM 32.4208 -87.6239 238° Southwest 215 247 24,000  Level Atlanta Center
Sun 11:34:56 AM 32.3919 -87.6817 239° Southwest 215 247 24,000  Level Atlanta Center
Sun 11:35:56 AM 32.3589 -87.7419 237° Southwest 215 247 24,000  Level Atlanta Center
Sun 11:36:56 AM 32.3281 -87.7994 238° Southwest 215 247 24,000  Level Atlanta Center
Sun 11:37:56 AM 32.2992 -87.8550 238° Southwest 215 247 24,000  Level Atlanta Center
Sun 11:38:56 AM 32.2681 -87.9150 238° Southwest 215 247 24,000  Level Atlanta Center
Sun 11:39:56 AM 32.2372 -87.9700 236° Southwest 210 242 24,000  Level Atlanta Center
Sun 11:40:56 AM 32.2081 -88.0325 241° Southwest 210 242 24,000  Level Atlanta Center
Sun 11:41:56 AM 32.1789 -88.0903 239° Southwest 210 242 24,000  Level Atlanta Center
Sun 11:42:56 AM 32.1492 -88.1492 239° Southwest 206 237 24,000  Level Memphis Center
Sun 11:43:56 AM 32.1189 -88.2086 239° Southwest 206 237 24,000  Level Memphis Center
Sun 11:44:56 AM 32.0928 -88.2658 242° Southwest 206 237 24,000  Level Memphis Center
Sun 11:45:56 AM 32.0603 -88.3278 238° Southwest 206 237 24,000  Level Memphis Center
Sun 11:46:56 AM 32.0278 -88.3847 236° Southwest 211 243 24,000  Level Memphis Center
Sun 11:47:56 AM 31.9975 -88.4442 239° Southwest 211 243 24,000  Level Memphis Center
Sun 11:48:56 AM 31.9672 -88.5061 240° Southwest 218 251 24,000  Level Memphis Center
Sun 11:49:56 AM 31.9367 -88.5606 237° Southwest 213 245 24,000  Level Memphis Center
Sun 11:50:56 AM 31.9042 -88.6200 237° Southwest 219 252 24,000  Level Memphis Center
Sun 11:51:56 AM 31.8714 -88.6792 237° Southwest 219 252 24,000  Level Memphis Center
Sun 11:52:56 AM 31.8408 -88.7386 239° Southwest 219 252 24,000  Level Memphis Center
Sun 11:53:56 AM 31.8061 -88.7978 235° Southwest 219 252 24,000  Level Memphis Center
Sun 11:54:15 AM 31.7947 -88.8172 235° Southwest 213 245 24,000  Level Houston Center
Sun 11:55:17 AM 31.7617 -88.8769 237° Southwest 218 251 24,000  Level Houston Center
Sun 11:56:19 AM 31.7294 -88.9364 238° Southwest 217 250 24,000  Level Houston Center
Sun 11:57:21 AM 31.6967 -88.9953 237° Southwest 216 249 24,000  Level Houston Center
Sun 11:58:23 AM 31.6628 -89.0536 236° Southwest 217 250 24,000  Level Houston Center
Sun 11:59:25 AM 31.6294 -89.1133 237° Southwest 219 252 24,000  Level Houston Center
Sun 12:00:27 PM 31.5900 -89.1831 236° Southwest 215 247 24,000  Level Houston Center
Sun 12:01:30 PM 31.5589 -89.2433 239° Southwest 217 250 24,000  Level Houston Center
Sun 12:02:32 PM 31.5269 -89.3014 237° Southwest 214 246 24,000  Level Houston Center
Sun 12:03:34 PM 31.4944 -89.3600 237° Southwest 214 246 24,000 -48 Level Houston Center
Sun 12:04:36 PM 31.4631 -89.4203 239° Southwest 217 250 23,900 -242 Descending Houston Center
Sun 12:05:38 PM 31.4261 -89.4944 240° Southwest 219 252 23,500 -339 Descending Houston Center
Sun 12:06:40 PM 31.3969 -89.5528 240° Southwest 225 259 23,200 -387 Descending Houston Center
Sun 12:07:42 PM 31.3628 -89.6197 239° Southwest 235 270 22,700 -726 Descending Houston Center
Sun 12:08:44 PM 31.3244 -89.7014 241° Southwest 238 274 21,700 -871 Descending Houston Center
Sun 12:09:46 PM 31.2894 -89.7694 239° Southwest 243 280 20,900 -774 Descending Houston Center
Sun 12:10:48 PM 31.2525 -89.8344 236° Southwest 242 278 20,100 -823 Descending Houston Center
Sun 12:11:50 PM 31.2147 -89.8994 236° Southwest 242 278 19,200 -726 Descending Houston Center
Sun 12:12:52 PM 31.1781 -89.9653 237° Southwest 243 280 18,600 -823 Descending Houston Center
Sun 12:13:54 PM 31.1444 -90.0303 239° Southwest 237 273 17,500 -1,210 Descending Houston Center
Sun 12:14:56 PM 31.0992 -90.1158 238° Southwest 255 293 16,100 -1,113 Descending Houston Center
Sun 12:15:58 PM 31.0622 -90.1878 239° Southwest 260 299 15,200 -823 Descending Houston Center
Sun 12:17:00 PM 31.0250 -90.2606 239° Southwest 262 302 14,400 -774 Descending Houston Center
Sun 12:18:02 PM 30.9881 -90.3319 239° Southwest 259 298 13,600 -1,016 Descending Houston Center
Sun 12:19:04 PM 30.9467 -90.4022 236° Southwest 262 302 12,300 -1,258 Descending Houston Center
Sun 12:20:06 PM 30.8986 -90.4883 237° Southwest 264 304 11,000 -1,161 Descending Houston Center
Sun 12:21:08 PM 30.8503 -90.5536 229° Southwest 265 305 9,900 -1,065 Descending Houston Center
Sun 12:22:10 PM 30.8028 -90.6172 229° Southwest 263 303 8,800 -1,065 Descending Houston Center
Sun 12:23:12 PM 30.7561 -90.6744 227° Southwest 250 288 7,700 -919 Descending Houston Center
Sun 12:24:14 PM 30.7017 -90.7253 219° Southwest 247 284 6,900 -774 Descending Houston Center
Sun 12:25:16 PM 30.6483 -90.7769 220° Southwest 248 285 6,100 -1,306 Descending Houston Center
Sun 12:26:18 PM 30.5856 -90.8325 217° Southwest 244 281 4,200 -1,742 Descending Houston Center
Sun 12:27:20 PM 30.5358 -90.8747 216° Southwest 235 270 2,500 -968 Descending Houston Center
Sun 12:28:22 PM 30.4978 -90.9150 222° Southwest 215 247 2,200 -97 Descending Houston Center
Sun 12:29:24 PM 30.4739 -90.9650 241° Southwest 195 224 2,300 145 Climbing Houston Center
Sun 12:30:26 PM 30.4686 -91.0269 264° West 198 228 2,500 48 Climbing Houston Center
Sun 12:31:28 PM 30.4739 -91.0875 276° West 197 227 2,400 -97 Descending Houston Center
Sun 12:33:00 PM 30.5167 -91.1333 288° West  Level FlightAware Approximate
Sun 12:40:00 PM 30.5329 -91.1499 288° West  Level Estimated

Login

Don't have an account? Register now (free) for customized features, flight alerts, and more!